Time;durP1;ratioP1;P1;durP2;ratioP2;P2;SDS_P1;SDS_P2;PMS_P1;PMS_P2;Temp;Humidity;BMP_temperature;BMP_pressure;BME280_temperature;BME280_humidity;BME280_pressure;Samples;Min_cycle;Max_cycle;Signal;HPM_P1;HPM_P2
2024/02/02 00:00:22;;;;;;;0.30;0.30;;;;;;;2.50;92.32;100632.13;5117426;28;20130;-68
2024/02/02 00:02:51;;;;;;;0.88;0.85;;;;;;;2.53;92.67;100626.38;5117447;28;20276;-68
2024/02/02 00:05:20;;;;;;;1.90;1.53;;;;;;;2.55;91.93;100623.13;5117420;28;20031;-68
2024/02/02 00:07:49;;;;;;;0.47;0.47;;;;;;;2.56;92.04;100622.34;5117065;28;20283;-68
2024/02/02 00:10:17;;;;;;;2.57;2.20;;;;;;;2.56;91.54;100622.34;5116080;28;20110;-69
2024/02/02 00:12:47;;;;;;;0.70;0.70;;;;;;;2.55;91.58;100625.66;5117033;28;20028;-69
2024/02/02 00:15:16;;;;;;;0.50;0.50;;;;;;;2.55;90.96;100618.09;5117197;28;20287;-68
2024/02/02 00:17:47;;;;;;;0.40;0.40;;;;;;;2.60;90.81;100624.19;5115576;28;20451;-69
2024/02/02 00:20:16;;;;;;;0.43;0.43;;;;;;;2.63;90.13;100619.31;5117679;28;20096;-69
2024/02/02 00:22:44;;;;;;;0.50;0.50;;;;;;;2.67;90.83;100625.34;5116909;28;20096;-69
2024/02/02 00:25:13;;;;;;;0.52;0.52;;;;;;;2.60;90.29;100614.13;5117091;28;20050;-69
2024/02/02 00:27:42;;;;;;;0.40;0.40;;;;;;;2.70;89.72;100628.88;5114499;28;20044;-69
2024/02/02 00:30:12;;;;;;;2.10;1.83;;;;;;;2.71;89.03;100633.09;5116983;28;20047;-68
2024/02/02 00:32:44;;;;;;;0.65;0.65;;;;;;;2.72;89.73;100629.81;5117156;28;20044;-68
2024/02/02 00:35:15;;;;;;;0.30;0.30;;;;;;;2.61;88.53;100615.88;5116857;28;20055;-69
2024/02/02 00:37:44;;;;;;;0.50;0.50;;;;;;;2.62;88.61;100627.66;5115854;28;20040;-69
2024/02/02 00:40:13;;;;;;;0.35;0.35;;;;;;;2.52;87.73;100614.59;5115473;28;20032;-69
2024/02/02 00:42:45;;;;;;;0.30;0.30;;;;;;;2.43;88.59;100615.00;5114362;28;20130;-69
2024/02/02 00:45:13;;;;;;;0.30;0.30;;;;;;;2.33;88.35;100615.34;5116481;28;20036;-69
2024/02/02 00:47:43;;;;;;;;;;;;;;;2.38;87.76;100621.47;5116742;28;20050;-68
2024/02/02 00:50:11;;;;;;;0.30;0.30;;;;;;;2.36;87.29;100607.97;5116488;28;19972;-68
2024/02/02 00:52:42;;;;;;;0.40;0.40;;;;;;;2.41;87.26;100606.50;5116518;28;20123;-69
2024/02/02 00:55:11;;;;;;;0.40;0.40;;;;;;;2.64;87.10;100621.03;5116500;28;20524;-68
2024/02/02 00:57:40;;;;;;;0.30;0.30;;;;;;;2.64;86.62;100626.06;5115258;28;20127;-68
2024/02/02 01:00:10;;;;;;;0.45;0.45;;;;;;;2.59;87.05;100624.16;5116596;28;20420;-69
2024/02/02 01:02:39;;;;;;;1.55;1.33;;;;;;;2.56;86.70;100629.03;5114804;28;20048;-69
2024/02/02 01:05:09;;;;;;;0.60;0.60;;;;;;;2.46;86.11;100625.22;5116479;28;20492;-68
2024/02/02 01:07:38;;;;;;;0.43;0.43;;;;;;;2.37;86.08;100634.00;5116017;28;20290;-68
2024/02/02 01:10:12;;;;;;;1.27;1.17;;;;;;;2.27;86.24;100627.69;5116145;28;20038;-69
2024/02/02 01:12:41;;;;;;;0.70;0.70;;;;;;;2.22;85.33;100618.16;5116169;28;20067;-69
2024/02/02 01:15:10;;;;;;;0.30;0.30;;;;;;;2.15;85.71;100617.03;5115900;28;20032;-68
2024/02/02 01:17:39;;;;;;;0.60;0.60;;;;;;;2.13;86.00;100623.66;5116093;28;20054;-69
2024/02/02 01:20:09;;;;;;;0.67;0.67;;;;;;;2.08;85.82;100621.69;5115970;28;20039;-69
2024/02/02 01:22:37;;;;;;;0.55;0.55;;;;;;;2.04;85.37;100625.69;5115554;28;20288;-68
2024/02/02 01:25:09;;;;;;;1.10;1.03;;;;;;;1.98;86.39;100622.91;5114823;28;20089;-69
2024/02/02 01:27:38;;;;;;;3.15;1.30;;;;;;;1.88;85.93;100628.28;5115634;28;20118;-68
2024/02/02 01:30:11;;;;;;;0.73;0.73;;;;;;;1.80;85.71;100622.88;5115934;28;20043;-68
2024/02/02 01:32:40;;;;;;;0.55;0.55;;;;;;;1.78;85.89;100623.56;5114013;28;20416;-68
2024/02/02 01:35:09;;;;;;;0.60;0.60;;;;;;;1.75;86.16;100625.97;5097400;28;20044;-68
2024/02/02 01:37:38;;;;;;;4.18;3.35;;;;;;;1.66;85.60;100628.00;5114312;28;20416;-68
2024/02/02 01:40:09;;;;;;;0.93;0.93;;;;;;;1.56;85.48;100624.16;5115471;28;20046;-69
2024/02/02 01:42:38;;;;;;;2.55;1.65;;;;;;;1.48;86.05;100619.56;5115139;28;20054;-67
2024/02/02 01:45:08;;;;;;;1.92;1.58;;;;;;;1.30;85.91;100595.19;5115202;28;20497;-68
2024/02/02 01:47:36;;;;;;;;;;;;;;;1.37;85.91;100618.16;5115415;28;20082;-68
2024/02/02 01:50:06;;;;;;;2.67;1.40;;;;;;;1.30;86.72;100617.84;5115306;28;19943;-68
2024/02/02 01:52:35;;;;;;;1.48;1.38;;;;;;;1.32;86.78;100616.25;5114153;28;20066;-68
2024/02/02 01:55:04;;;;;;;5.25;3.42;;;;;;;1.31;86.98;100617.06;5114861;28;20066;-69
2024/02/02 01:57:34;;;;;;;0.30;0.30;;;;;;;1.31;86.15;100624.59;5113674;28;20035;-68
2024/02/02 02:00:04;;;;;;;1.50;1.40;;;;;;;1.30;86.44;100617.84;5115247;28;20131;-69
2024/02/02 02:02:37;;;;;;;6.53;2.97;;;;;;;1.39;87.27;100616.59;5115101;28;20050;-69
2024/02/02 02:05:07;;;;;;;0.65;0.65;;;;;;;1.43;86.87;100613.44;5115334;28;20073;-69
2024/02/02 02:07:36;;;;;;;;;;;;;;;1.49;86.79;100613.75;5097049;28;20047;-68
2024/02/02 02:10:05;;;;;;;0.85;0.75;;;;;;;1.55;87.05;100614.03;5114921;28;19923;-68
2024/02/02 02:12:35;;;;;;;0.90;0.90;;;;;;;1.64;87.13;100609.44;5115254;28;20393;-68
2024/02/02 02:15:04;;;;;;;1.02;1.02;;;;;;;1.71;86.05;100602.28;5115348;28;20051;-69
2024/02/02 02:17:33;;;;;;;0.30;0.30;;;;;;;1.96;86.69;100605.22;5115002;28;20051;-69
2024/02/02 02:20:05;;;;;;;0.30;0.30;;;;;;;2.27;86.60;100607.53;5114881;28;20059;-69
2024/02/02 02:22:35;;;;;;;0.20;0.20;;;;;;;2.43;85.41;100615.00;5114592;28;20055;-68
2024/02/02 02:25:05;;;;;;;0.43;0.43;;;;;;;2.64;85.10;100600.84;5114860;28;20451;-67
2024/02/02 02:27:34;;;;;;;;;;;;;;;2.85;84.63;100611.06;5113755;28;20635;-68
2024/02/02 02:30:04;;;;;;;2.35;0.52;;;;;;;2.90;83.77;100599.53;5113396;28;20365;-68
2024/02/02 02:32:33;;;;;;;0.30;0.30;;;;;;;3.03;83.14;100604.28;5114485;28;20512;-68
2024/02/02 02:35:02;;;;;;;0.30;0.30;;;;;;;3.10;83.08;100607.94;5114377;28;20042;-67
2024/02/02 02:37:31;;;;;;;0.30;0.30;;;;;;;3.18;82.83;100612.53;5114817;28;20051;-69
2024/02/02 02:40:01;;;;;;;0.25;0.25;;;;;;;3.26;82.13;100598.59;5114461;28;20042;-68
2024/02/02 02:42:30;;;;;;;0.20;0.20;;;;;;;3.29;80.81;100595.31;5114222;28;20485;-68
2024/02/02 02:44:59;;;;;;;0.20;0.20;;;;;;;3.31;80.70;100588.72;5113167;28;20066;-68
2024/02/02 02:47:29;;;;;;;0.52;0.52;;;;;;;3.29;80.75;100585.25;5113178;28;20334;-68
2024/02/02 02:49:58;;;;;;;1.10;1.08;;;;;;;3.36;80.34;100593.13;5113089;28;20070;-69
2024/02/02 02:52:28;;;;;;;0.30;0.30;;;;;;;3.40;80.39;100584.06;5114027;28;20040;-67
2024/02/02 02:54:56;;;;;;;0.30;0.30;;;;;;;3.36;79.98;100592.28;5114357;28;20550;-69
2024/02/02 02:57:26;;;;;;;0.20;0.20;;;;;;;3.39;79.20;100602.50;5114360;28;20036;-68
2024/02/02 02:59:55;;;;;;;0.30;0.30;;;;;;;3.41;79.59;100605.09;5113992;28;20082;-68
2024/02/02 03:02:24;;;;;;;0.73;0.73;;;;;;;3.40;78.87;100604.25;5114159;28;20040;-69
2024/02/02 03:04:53;;;;;;;0.40;0.40;;;;;;;3.41;79.22;100598.38;5113891;28;20311;-68
2024/02/02 03:07:22;;;;;;;0.20;0.20;;;;;;;3.38;79.12;100595.75;5118370;28;20080;-68
2024/02/02 03:09:50;;;;;;;0.30;0.30;;;;;;;3.32;79.33;100600.50;5117237;28;20089;-68
2024/02/02 03:12:19;;;;;;;3.00;1.07;;;;;;;3.29;78.86;100605.41;5118511;28;20043;-68
2024/02/02 03:14:49;;;;;;;0.30;0.30;;;;;;;3.29;79.03;100610.47;5118149;28;20089;-68
2024/02/02 03:17:18;;;;;;;0.20;0.20;;;;;;;3.31;78.81;100613.94;5118901;28;20120;-68
2024/02/02 03:19:47;;;;;;;0.27;0.27;;;;;;;3.29;78.23;100611.34;5118557;28;20040;-68
2024/02/02 03:22:15;;;;;;;1.40;1.20;;;;;;;3.24;78.45;100606.88;5118001;28;20079;-69
2024/02/02 03:24:44;;;;;;;0.30;0.30;;;;;;;3.30;78.67;100622.28;5100001;28;20392;-69
2024/02/02 03:27:13;;;;;;;0.40;0.40;;;;;;;3.27;78.40;100622.16;5118024;28;20042;-68
2024/02/02 03:29:42;;;;;;;0.20;0.20;;;;;;;3.25;78.48;100627.16;5118326;28;20122;-68
2024/02/02 03:32:12;;;;;;;1.08;0.98;;;;;;;3.14;77.91;100609.81;5118030;28;20073;-69
2024/02/02 03:34:41;;;;;;;1.00;0.98;;;;;;;3.16;77.94;100621.72;5117729;27;20044;-69
2024/02/02 03:37:10;;;;;;;0.60;0.57;;;;;;;3.10;77.63;100630.63;5118081;28;20126;-68
2024/02/02 03:39:39;;;;;;;2.10;1.90;;;;;;;3.03;77.98;100633.69;5118177;27;20478;-68
2024/02/02 03:42:08;;;;;;;0.93;0.93;;;;;;;2.99;78.16;100626.78;5117780;28;20066;-69
2024/02/02 03:44:37;;;;;;;0.30;0.30;;;;;;;2.92;77.90;100625.66;5117789;27;20100;-69
2024/02/02 03:47:06;;;;;;;0.60;0.60;;;;;;;2.89;78.60;100622.13;5117150;28;20040;-67
2024/02/02 03:49:37;;;;;;;0.50;0.50;;;;;;;2.80;78.75;100626.75;5117586;28;20040;-69
2024/02/02 03:52:07;;;;;;;0.40;0.40;;;;;;;2.70;78.26;100630.53;5117385;28;20059;-69
2024/02/02 03:54:35;;;;;;;;;;;;;;;2.69;79.23;100634.69;5117045;28;20607;-69
2024/02/02 03:57:04;;;;;;;0.20;0.20;;;;;;;2.72;79.05;100628.94;5117312;28;19919;-69
2024/02/02 03:59:33;;;;;;;0.25;0.25;;;;;;;2.72;79.04;100619.72;5117581;28;20093;-68
2024/02/02 04:02:02;;;;;;;0.30;0.30;;;;;;;2.75;79.57;100624.03;5117441;28;20046;-68
2024/02/02 04:04:31;;;;;;;0.20;0.20;;;;;;;2.76;79.40;100635.00;5117791;28;20032;-69
2024/02/02 04:07:02;;;;;;;0.40;0.40;;;;;;;2.75;78.77;100623.16;5117129;28;20655;-68
2024/02/02 04:09:30;;;;;;;1.02;1.02;;;;;;;2.73;78.97;100616.38;5117153;28;20035;-69
2024/02/02 04:11:59;;;;;;;0.83;0.83;;;;;;;2.65;79.42;100602.59;5117220;28;20036;-69
2024/02/02 04:14:28;;;;;;;0.35;0.35;;;;;;;2.76;79.30;100622.38;5117281;28;20054;-68
2024/02/02 04:16:57;;;;;;;0.20;0.20;;;;;;;2.77;79.65;100621.56;5117189;28;20043;-69
2024/02/02 04:19:26;;;;;;;1.40;1.23;;;;;;;2.77;79.49;100616.53;5116906;28;20497;-68
2024/02/02 04:21:54;;;;;;;0.37;0.37;;;;;;;2.75;78.65;100619.00;5098627;28;20654;-69
2024/02/02 04:24:25;;;;;;;0.30;0.30;;;;;;;2.75;78.84;100624.03;5116595;28;20139;-68
2024/02/02 04:26:53;;;;;;;2.78;1.13;;;;;;;2.75;78.98;100628.22;5116794;28;20118;-69
2024/02/02 04:29:22;;;;;;;1.10;1.07;;;;;;;2.72;78.44;100624.75;5116816;28;20112;-68
2024/02/02 04:31:51;;;;;;;1.48;1.38;;;;;;;2.68;78.91;100617.88;5116820;28;20158;-69
2024/02/02 04:34:20;;;;;;;2.72;1.55;;;;;;;2.65;79.25;100632.84;5116559;28;20044;-68
2024/02/02 04:36:49;;;;;;;0.57;0.57;;;;;;;2.55;78.69;100627.28;5115282;28;20439;-69
2024/02/02 04:39:18;;;;;;;0.50;0.50;;;;;;;2.50;78.93;100632.13;5116396;28;20138;-68
2024/02/02 04:41:48;;;;;;;2.77;2.33;;;;;;;2.42;79.62;100633.44;5116469;28;20119;-68
2024/02/02 04:44:17;;;;;;;1.63;1.45;;;;;;;2.33;79.21;100640.53;5116388;28;20286;-69
2024/02/02 04:46:46;;;;;;;1.87;1.20;;;;;;;2.25;80.00;100644.38;5116603;28;20028;-69
2024/02/02 04:49:15;;;;;;;1.10;1.00;;;;;;;2.14;79.73;100640.47;5116411;28;20284;-68
2024/02/02 04:51:44;;;;;;;0.32;0.32;;;;;;;2.06;79.56;100645.94;5116540;27;20036;-68
2024/02/02 04:54:13;;;;;;;0.77;0.77;;;;;;;2.01;80.26;100659.16;5114927;28;20397;-69
2024/02/02 04:56:42;;;;;;;7.85;1.63;;;;;;;1.86;80.19;100648.34;5116262;28;20489;-69
2024/02/02 04:59:12;;;;;;;20.37;2.90;;;;;;;1.87;80.89;100661.81;5116393;28;20039;-68
2024/02/02 05:01:41;;;;;;;2.85;1.38;;;;;;;1.84;80.77;100666.66;5116304;28;20044;-69
2024/02/02 05:04:09;;;;;;;0.60;0.60;;;;;;;1.86;81.11;100662.56;5115910;27;20546;-69
2024/02/02 05:06:38;;;;;;;3.33;3.03;;;;;;;1.91;80.90;100663.66;5115295;28;20325;-69
2024/02/02 05:09:07;;;;;;;0.77;0.77;;;;;;;1.92;81.15;100660.38;5114570;28;20463;-69
2024/02/02 05:11:38;;;;;;;2.40;1.60;;;;;;;1.91;81.14;100661.16;5115836;28;20287;-68
2024/02/02 05:14:06;;;;;;;0.60;0.60;;;;;;;1.84;81.21;100664.16;5115975;28;20040;-68
2024/02/02 05:16:37;;;;;;;0.50;0.50;;;;;;;1.80;81.32;100662.28;5116317;27;20043;-69
2024/02/02 05:19:06;;;;;;;0.40;0.40;;;;;;;1.81;82.02;100653.94;5116055;28;20052;-67
2024/02/02 05:21:35;;;;;;;0.50;0.50;;;;;;;1.85;81.75;100660.84;5114578;28;20032;-69
2024/02/02 05:24:04;;;;;;;1.30;1.23;;;;;;;1.77;81.60;100663.00;5115857;28;20465;-68
2024/02/02 05:26:53;;;;;;;1.90;1.80;;;;;;;1.65;81.47;100671.56;5115821;28;20040;-69
2024/02/02 05:29:22;;;;;;;2.22;1.67;;;;;;;1.58;81.70;100674.56;5114802;28;20048;-69
2024/02/02 05:31:52;;;;;;;1.77;1.67;;;;;;;1.51;82.51;100672.53;5115466;28;20042;-68
2024/02/02 05:34:21;;;;;;;0.82;0.82;;;;;;;1.45;82.30;100682.25;5115447;28;20066;-69
2024/02/02 05:36:50;;;;;;;2.85;1.88;;;;;;;1.46;82.08;100678.97;5115516;28;20039;-69
2024/02/02 05:39:19;;;;;;;0.80;0.80;;;;;;;1.49;82.85;100694.22;5115259;28;20093;-68
2024/02/02 05:41:47;;;;;;;0.50;0.50;;;;;;;1.47;81.94;100686.59;5113988;28;20476;-69
2024/02/02 05:44:16;;;;;;;0.40;0.40;;;;;;;1.43;83.05;100693.91;5114209;28;20039;-68
2024/02/02 05:46:45;;;;;;;0.82;0.73;;;;;;;1.37;82.33;100688.56;5115231;28;20279;-70
2024/02/02 05:49:15;;;;;;;1.63;1.52;;;;;;;1.34;82.81;100695.16;5115301;28;20485;-69
2024/02/02 05:51:44;;;;;;;1.17;1.08;;;;;;;1.33;82.39;100697.59;5115325;28;20047;-69
2024/02/02 05:54:14;;;;;;;3.15;1.60;;;;;;;1.32;83.01;100690.81;5115357;27;20036;-68
2024/02/02 05:56:43;;;;;;;0.90;0.90;;;;;;;1.23;83.15;100700.41;5115173;28;20040;-69
2024/02/02 05:59:11;;;;;;;3.20;2.70;;;;;;;1.19;83.41;100699.38;5115506;28;20093;-68
2024/02/02 06:01:40;;;;;;;1.57;1.47;;;;;;;1.27;83.34;100697.28;5115083;28;20035;-69
2024/02/02 06:04:09;;;;;;;2.03;1.90;;;;;;;1.30;83.46;100712.50;5113530;28;20371;-69
2024/02/02 06:06:40;;;;;;;3.83;3.35;;;;;;;1.23;82.78;100706.31;5115094;28;20042;-68
2024/02/02 06:09:11;;;;;;;4.22;3.65;;;;;;;1.27;84.00;100713.22;5114670;28;20054;-69
2024/02/02 06:11:40;;;;;;;0.63;0.63;;;;;;;1.38;83.62;100730.50;5115016;28;20370;-69
2024/02/02 06:14:09;;;;;;;2.08;1.98;;;;;;;1.43;83.90;100724.94;5114915;28;20134;-69
2024/02/02 06:16:37;;;;;;;1.40;1.30;;;;;;;1.50;83.96;100727.00;5113679;28;20085;-69
2024/02/02 06:19:06;;;;;;;2.10;1.90;;;;;;;1.51;83.31;100733.78;5114552;28;20036;-69
2024/02/02 06:21:35;;;;;;;1.52;1.42;;;;;;;1.51;83.16;100748.00;5114825;28;20135;-68
2024/02/02 06:24:07;;;;;;;2.17;1.25;;;;;;;1.50;83.99;100756.31;5114320;28;20083;-69
2024/02/02 06:26:36;;;;;;;0.57;0.57;;;;;;;1.49;84.06;100754.59;5114381;28;20052;-69
2024/02/02 06:29:05;;;;;;;1.48;1.38;;;;;;;1.47;83.60;100756.13;5114877;28;20040;-69
2024/02/02 06:31:34;;;;;;;1.25;1.17;;;;;;;1.47;83.42;100767.06;5114356;28;20053;-69
2024/02/02 06:34:03;;;;;;;0.47;0.47;;;;;;;1.49;83.44;100757.09;5113092;28;20040;-70
2024/02/02 06:36:32;;;;;;;4.35;3.92;;;;;;;1.41;83.54;100744.13;5114496;28;20039;-69
2024/02/02 06:39:01;;;;;;;12.00;6.07;;;;;;;1.56;83.61;100769.22;5114862;28;20042;-68
2024/02/02 06:41:32;;;;;;;11.15;4.13;;;;;;;1.57;83.20;100774.31;5113514;28;20039;-69
2024/02/02 06:44:01;;;;;;;9.30;4.70;;;;;;;1.42;83.48;100757.56;5114439;28;20048;-69
2024/02/02 06:46:30;;;;;;;4.47;3.65;;;;;;;1.58;83.30;100772.69;5096232;28;20123;-69
2024/02/02 06:48:58;;;;;;;11.80;5.23;;;;;;;1.61;84.20;100771.16;5114408;28;20050;-68
2024/02/02 06:51:27;;;;;;;6.88;6.18;;;;;;;1.64;84.25;100776.38;5114375;28;20508;-69
2024/02/02 06:53:56;;;;;;;5.13;4.72;;;;;;;1.67;84.33;100781.56;5113990;28;20493;-68
2024/02/02 06:56:39;;;;;;;5.20;4.33;;;;;;;1.71;84.29;100777.53;5114339;28;20122;-69
2024/02/02 06:59:09;;;;;;;5.07;4.00;;;;;;;1.73;83.55;100781.00;5113927;28;20048;-69
2024/02/02 07:01:39;;;;;;;3.60;3.28;;;;;;;1.74;83.93;100787.78;5114090;28;20491;-69
2024/02/02 07:04:14;;;;;;;20.20;4.55;;;;;;;1.75;83.65;100779.44;5113169;28;20051;-68
2024/02/02 07:06:44;;;;;;;7.13;3.65;;;;;;;1.78;84.73;100779.59;5112747;28;20044;-68
2024/02/02 07:09:29;;;;;;;2.28;1.98;;;;;;;1.85;84.61;100795.09;5114095;28;20050;-67
2024/02/02 07:12:04;;;;;;;1.85;1.63;;;;;;;1.91;84.73;100797.06;5114113;28;20073;-68
2024/02/02 07:14:51;;;;;;;2.22;2.03;;;;;;;1.92;84.46;100798.81;5112825;28;20044;-67
2024/02/02 07:17:31;;;;;;;0.90;0.90;;;;;;;1.92;84.78;100794.59;5114455;28;20063;-66
2024/02/02 07:20:00;;;;;;;1.10;1.10;;;;;;;2.04;84.43;100799.41;5113786;28;20493;-66
2024/02/02 07:22:39;;;;;;;1.80;1.70;;;;;;;2.11;84.65;100793.91;5113759;28;20127;-69
2024/02/02 07:25:09;;;;;;;0.93;0.90;;;;;;;2.26;83.79;100797.19;5114105;28;20054;-68
2024/02/02 07:28:03;;;;;;;2.05;1.90;;;;;;;2.43;83.78;100792.97;5114155;28;20040;-68
2024/02/02 07:30:54;;;;;;;1.10;0.82;;;;;;;2.62;83.21;100788.91;5114167;28;20051;-68
2024/02/02 07:33:27;;;;;;;0.30;0.30;;;;;;;2.68;83.76;100789.22;5113691;28;20431;-67
2024/02/02 07:35:58;;;;;;;12.68;1.50;;;;;;;2.73;82.80;100791.97;5113920;28;20096;-68
2024/02/02 07:38:44;;;;;;;11.40;4.03;;;;;;;2.77;82.99;100780.38;5113973;28;20063;-68
2024/02/02 07:41:15;;;;;;;9.02;1.88;;;;;;;2.81;82.29;100782.25;5113800;28;20042;-69
2024/02/02 07:43:47;;;;;;;0.68;0.68;;;;;;;2.84;82.73;100780.72;5113577;28;20554;-67
2024/02/02 07:46:16;;;;;;;0.52;0.52;;;;;;;2.87;82.20;100785.94;5113881;28;20054;-67
2024/02/02 07:48:48;;;;;;;2.30;1.55;;;;;;;2.89;82.55;100783.47;5113772;28;20032;-68
2024/02/02 07:51:18;;;;;;;15.73;2.60;;;;;;;2.91;82.00;100786.91;5113794;28;20047;-68
2024/02/02 07:53:47;;;;;;;4.28;1.30;;;;;;;2.93;81.75;100791.25;5117640;28;20061;-69
2024/02/02 07:56:17;;;;;;;0.35;0.35;;;;;;;3.02;81.71;100786.66;5115853;28;20055;-68
2024/02/02 07:58:48;;;;;;;0.60;0.60;;;;;;;3.10;81.77;100779.41;5117257;28;20055;-68
2024/02/02 08:01:17;;;;;;;0.43;0.43;;;;;;;3.21;81.51;100783.31;5117368;28;20052;-67
2024/02/02 08:03:46;;;;;;;;;;;;;;;3.31;81.43;100781.28;5117988;28;20040;-69
2024/02/02 08:06:15;;;;;;;1.53;1.43;;;;;;;3.37;81.31;100785.75;5112707;28;19919;-68
2024/02/02 08:08:45;;;;;;;2.58;2.28;;;;;;;3.42;81.62;100776.72;5107797;28;20408;-66
2024/02/02 08:11:15;;;;;;;3.08;2.85;;;;;;;3.49;81.13;100778.72;5101843;28;20077;-67
2024/02/02 08:13:45;;;;;;;1.88;1.65;;;;;;;3.56;80.84;100782.38;5096851;28;20052;-67
2024/02/02 08:16:15;;;;;;;1.20;0.77;;;;;;;3.59;80.81;100778.34;5095428;28;20040;-69
2024/02/02 08:18:44;;;;;;;1.70;1.60;;;;;;;3.63;81.19;100785.25;5097036;28;20280;-68
2024/02/02 08:21:13;;;;;;;1.90;1.23;;;;;;;3.70;81.03;100786.38;5095890;28;20051;-69
2024/02/02 08:23:44;;;;;;;1.23;1.13;;;;;;;3.75;81.11;100779.88;5096428;28;20047;-65
2024/02/02 08:26:12;;;;;;;1.85;1.65;;;;;;;3.75;80.79;100773.19;5095262;28;20283;-69
2024/02/02 08:28:42;;;;;;;1.20;1.10;;;;;;;3.78;80.50;100785.94;5096203;28;20051;-66
2024/02/02 08:31:23;;;;;;;1.52;1.42;;;;;;;3.82;80.67;100787.78;5106790;28;20370;-67
2024/02/02 08:33:52;;;;;;;1.13;1.02;;;;;;;3.83;81.11;100789.53;5104143;28;20040;-70
2024/02/02 08:36:21;;;;;;;;;;;;;;;3.88;80.90;100795.66;5096528;28;20078;-68
2024/02/02 08:38:50;;;;;;;3.72;1.95;;;;;;;3.94;80.46;100793.38;5096465;28;19935;-67
2024/02/02 08:41:19;;;;;;;0.80;0.80;;;;;;;4.00;80.52;100798.72;5096292;28;20044;-68
2024/02/02 08:43:49;;;;;;;0.97;0.90;;;;;;;4.03;79.93;100791.25;5096114;28;20038;-66
2024/02/02 08:46:21;;;;;;;1.17;1.10;;;;;;;4.03;80.12;100793.75;5096125;28;20269;-68
2024/02/02 08:48:54;;;;;;;1.20;1.10;;;;;;;4.11;79.92;100800.81;5095038;28;20047;-68
2024/02/02 08:51:52;;;;;;;0.45;0.45;;;;;;;4.10;80.11;100804.16;5094841;28;20127;-68
2024/02/02 08:54:33;;;;;;;2.63;1.38;;;;;;;4.13;80.45;100804.28;5096025;28;20040;-66
2024/02/02 08:57:25;;;;;;;0.50;0.50;;;;;;;4.19;79.98;100804.53;5096131;28;20040;-67
2024/02/02 08:59:54;;;;;;;1.17;1.10;;;;;;;4.23;80.30;100806.38;5095949;28;20048;-68
2024/02/02 09:02:53;;;;;;;1.02;1.02;;;;;;;4.26;80.01;100814.09;5095593;28;20044;-67
2024/02/02 09:05:26;;;;;;;1.05;1.05;;;;;;;4.32;80.23;100811.84;5085883;28;20082;-67
2024/02/02 09:08:10;;;;;;;5.47;1.27;;;;;;;4.39;80.12;100812.16;5095563;28;20048;-68
2024/02/02 09:11:01;;;;;;;0.63;0.63;;;;;;;4.49;80.39;100810.84;5095654;28;20047;-69
2024/02/02 09:13:31;;;;;;;0.40;0.40;;;;;;;4.62;80.16;100820.69;5094679;28;20058;-66
2024/02/02 09:16:00;;;;;;;0.40;0.40;;;;;;;4.73;80.23;100811.88;5095584;28;20521;-67
2024/02/02 09:18:34;;;;;;;0.38;0.38;;;;;;;4.83;80.07;100813.97;5095457;28;20048;-66
2024/02/02 09:21:07;;;;;;;1.38;1.25;;;;;;;4.86;79.89;100819.16;5095444;28;20035;-69
2024/02/02 09:23:39;;;;;;;0.32;0.32;;;;;;;4.95;79.66;100819.53;5094958;28;20048;-68
2024/02/02 09:26:12;;;;;;;0.50;0.50;;;;;;;5.02;79.22;100821.50;5095806;28;20044;-69
2024/02/02 09:28:42;;;;;;;2.20;0.73;;;;;;;5.14;79.12;100816.91;5095373;28;20055;-67
2024/02/02 09:31:17;;;;;;;0.20;0.20;;;;;;;5.22;78.33;100824.81;5095208;28;20048;-68
2024/02/02 09:33:48;;;;;;;0.85;0.85;;;;;;;5.28;77.77;100815.78;5094106;28;20060;-67
2024/02/02 09:36:21;;;;;;;0.63;0.63;;;;;;;5.34;77.61;100817.69;5094033;28;20051;-67
2024/02/02 09:38:57;;;;;;;1.02;1.02;;;;;;;5.41;76.91;100820.53;5094919;28;20058;-67
2024/02/02 09:41:56;;;;;;;0.82;0.82;;;;;;;5.49;77.03;100814.88;5095129;28;20112;-67
2024/02/02 09:44:48;;;;;;;0.77;0.77;;;;;;;5.60;76.67;100813.59;5094534;28;20050;-67
2024/02/02 09:47:37;;;;;;;0.20;0.20;;;;;;;5.76;76.42;100805.78;5092935;28;20048;-67
2024/02/02 09:50:21;;;;;;;0.25;0.25;;;;;;;5.87;76.08;100809.59;5094748;28;20613;-67
2024/02/02 09:53:09;;;;;;;11.02;1.35;;;;;;;5.99;76.00;100804.97;5094949;28;20460;-67
2024/02/02 09:55:50;;;;;;;1.60;1.50;;;;;;;6.09;76.25;100801.94;5094875;28;20059;-67
2024/02/02 09:58:26;;;;;;;0.50;0.50;;;;;;;6.15;75.77;100803.81;5094570;28;20050;-68
2024/02/02 10:01:02;;;;;;;0.65;0.65;;;;;;;6.28;75.63;100803.44;5094421;28;20394;-67
2024/02/02 10:03:41;;;;;;;2.17;0.77;;;;;;;6.60;75.62;100808.78;5093215;28;20051;-66
2024/02/02 10:06:27;;;;;;;3.60;1.58;;;;;;;6.83;75.22;100808.66;5093469;28;20491;-66
2024/02/02 10:09:13;;;;;;;0.40;0.40;;;;;;;6.98;74.55;100801.56;5094661;28;20048;-67
2024/02/02 10:11:55;;;;;;;1.30;1.00;;;;;;;6.96;73.73;100803.19;5094524;28;20103;-65
2024/02/02 10:14:46;;;;;;;0.77;0.77;;;;;;;6.94;74.64;100804.78;5094674;28;20134;-69
2024/02/02 10:17:28;;;;;;;0.40;0.40;;;;;;;6.90;73.74;100797.91;5094224;28;20143;-67
2024/02/02 10:20:21;;;;;;;0.90;0.90;;;;;;;6.93;72.99;100798.00;5094482;28;20055;-67
2024/02/02 10:23:07;;;;;;;0.20;0.20;;;;;;;6.81;72.85;100780.72;5092849;28;20475;-68
2024/02/02 10:25:55;;;;;;;1.10;1.02;;;;;;;6.89;73.60;100791.09;5094774;28;20485;-68
2024/02/02 10:28:38;;;;;;;0.20;0.20;;;;;;;6.93;73.83;100788.72;5094469;28;20044;-68
2024/02/02 10:31:26;;;;;;;1.52;0.98;;;;;;;6.97;73.75;100784.59;5093079;28;20072;-66
2024/02/02 10:34:09;;;;;;;0.40;0.40;;;;;;;7.03;73.55;100789.88;5094786;28;20485;-66
2024/02/02 10:36:50;;;;;;;1.85;0.73;;;;;;;7.04;73.75;100778.88;5094247;28;20043;-69
2024/02/02 10:39:33;;;;;;;0.98;0.98;;;;;;;7.14;72.76;100770.75;5093045;28;20040;-69
2024/02/02 10:42:22;;;;;;;0.22;0.22;;;;;;;7.20;73.15;100768.38;5093505;28;20498;-68
2024/02/02 10:45:03;;;;;;;0.60;0.60;;;;;;;7.26;72.66;100768.56;5093696;28;20070;-67
2024/02/02 10:47:49;;;;;;;0.90;0.70;;;;;;;7.28;71.97;100772.88;5093114;28;20492;-67
2024/02/02 10:50:21;;;;;;;0.73;0.73;;;;;;;7.29;71.99;100768.69;5094355;28;20478;-68
2024/02/02 10:53:04;;;;;;;1.20;1.20;;;;;;;7.44;71.78;100776.72;5094007;28;20044;-68
2024/02/02 10:55:57;;;;;;;0.60;0.50;;;;;;;7.44;71.60;100774.19;5094280;28;20044;-67
2024/02/02 10:58:41;;;;;;;0.38;0.38;;;;;;;7.48;71.87;100778.56;5075324;28;20060;-68
2024/02/02 11:01:25;;;;;;;0.28;0.28;;;;;;;7.46;71.20;100777.66;5093464;28;20051;-67
2024/02/02 11:04:15;;;;;;;2.58;1.10;;;;;;;7.35;71.64;100773.91;5093689;28;20074;-68
2024/02/02 11:06:50;;;;;;;0.45;0.45;;;;;;;7.29;71.42;100778.84;5093884;28;20044;-68
2024/02/02 11:09:26;;;;;;;1.30;1.20;;;;;;;7.27;71.33;100770.31;5093576;28;20048;-68
2024/02/02 11:12:05;;;;;;;0.30;0.30;;;;;;;7.24;70.71;100765.13;5093671;28;20086;-69
2024/02/02 11:14:39;;;;;;;1.00;0.95;;;;;;;7.20;71.07;100758.22;5093797;28;20106;-67
2024/02/02 11:17:20;;;;;;;0.40;0.40;;;;;;;7.20;71.10;100758.22;5093812;28;20052;-68
2024/02/02 11:20:16;;;;;;;0.25;0.25;;;;;;;7.29;71.29;100758.53;5094222;28;20044;-68
2024/02/02 11:22:50;;;;;;;2.72;0.85;;;;;;;7.39;70.58;100755.41;5093271;28;20048;-68
2024/02/02 11:25:27;;;;;;;0.30;0.30;;;;;;;7.48;69.87;100758.25;5093903;28;20133;-69
2024/02/02 11:28:03;;;;;;;1.05;0.95;;;;;;;7.78;70.21;100751.47;5096834;28;20047;-68
2024/02/02 11:30:51;;;;;;;0.40;0.40;;;;;;;7.97;69.41;100753.69;5096172;28;20097;-68
2024/02/02 11:33:36;;;;;;;0.30;0.30;;;;;;;8.13;68.63;100739.72;5097405;28;20044;-68
2024/02/02 11:36:24;;;;;;;0.47;0.47;;;;;;;8.21;68.00;100743.28;5097751;28;20152;-67
2024/02/02 11:39:09;;;;;;;0.50;0.50;;;;;;;8.35;67.91;100733.53;5097193;28;20127;-68
2024/02/02 11:41:40;;;;;;;10.93;1.05;;;;;;;8.41;67.20;100736.22;5097306;28;20041;-68
2024/02/02 11:44:12;;;;;;;0.93;0.82;;;;;;;8.60;67.76;100728.19;5096115;28;20101;-69
2024/02/02 11:46:46;;;;;;;0.82;0.82;;;;;;;8.70;66.69;100722.50;5097813;28;20393;-68
2024/02/02 11:49:23;;;;;;;0.77;0.77;;;;;;;8.74;65.82;100726.84;5097929;28;20089;-67
2024/02/02 11:51:55;;;;;;;0.65;0.65;;;;;;;8.68;65.98;100719.94;5097665;28;20482;-68
2024/02/02 11:54:30;;;;;;;0.32;0.32;;;;;;;8.82;65.40;100715.16;5097560;28;20065;-69
2024/02/02 11:57:02;;;;;;;0.52;0.52;;;;;;;8.99;65.17;100718.06;5095922;28;20497;-69
2024/02/02 11:59:34;;;;;;;0.30;0.30;;;;;;;9.28;64.91;100733.19;5096043;28;20044;-69